Terminal Aerodrome Forecast
Issued by NWS Topeka, KS

Home | Current Version | Previous Version | Text Only | Print | Product List | Glossary On
Versions: 1 2 3 4 5 6 7 8 9 10 11 12 13 14 15 16 17 18 19 20 21 22
000
FTUS43 KTOP 160932 AAB
TAFTOP
TAF AMD
KTOP 160932Z 1610/1706 17005KT P6SM VCTS BKN090CB
      TEMPO 1611/1615 4SM TSRA OVC025CB
     FM161500 17006KT P6SM -SHRA VCTS OVC020CB
     FM161700 19008KT P6SM SCT030
     FM162100 22008KT P6SM TSRA BKN040CB
     FM170300 28005KT P6SM BKN110=

USA.gov is the U.S. government's official web portal to all federal, state and local government web resources and services.